Список аэропортов
Фактическая погода:

21 апреля, 19:30
Температура: +6°C (+3.1*)
Ветер: западный 4 м/с
Давление: *765 мм
Без существ. явл.
Время (МСК)Темп. СВетерВлажностьДавлениеОблачностьОсадки
15:00+10ЮЗ, 6 м/с36%1021 гПас прояснениями
16:00+9ЮЗ, 6 м/с38%1020 гПас прояснениями
17:00+9З, 5 м/с41%1021 гПаоблачно
18:00+8З, 5 м/с43%1021 гПаоблачно
19:00+8З, 4 м/с49%1021 гПаоблачно
20:00+6ЮЗ, 4 м/с56%1022 гПаоблачно
21:00+6ЮЗ, 4 м/с58%1021 гПаоблачно
22:00+5ЮЗ, 4 м/с60%1021 гПаоблачно
23:00+4ЮЗ, 4 м/с64%1021 гПас прояснениями
22 апреля
00:00+3ЮЗ, 4 м/с67%1021 гПаоблачно
01:00+3ЮЗ, 4 м/с67%1021 гПаоблачно
02:00+4ЮЗ, 4 м/с67%1021 гПаоблачно
03:00+3ЮЗ, 4 м/с71%1021 гПаоблачно
04:00+3ЮЗ, 4 м/с73%1021 гПаоблачно
05:00+3ЮЗ, 4 м/с72%1021 гПаоблачно
06:00+4ЮЗ, 4 м/с70%1021 гПаоблачно
07:00+5ЮЗ, 5 м/с67%1021 гПаоблачно
08:00+6З, 5 м/с63%1021 гПаоблачно
09:00+7З, 6 м/с58%1020 гПаоблачно
10:00+8З, 6 м/с54%1020 гПаоблачно
11:00+9З, 6 м/с51%1020 гПаоблачно
12:00+10З, 6 м/с51%1019 гПаоблачно
13:00+10ЮЗ, 5 м/с48%1019 гПаоблачно
14:00+10ЮЗ, 5 м/с46%1018 гПаоблачно
15:00+11ЮЗ, 5 м/с46%1018 гПаоблачно
16:00+11Ю, 4 м/с46%1017 гПас прояснениями
17:00+11Ю, 4 м/с48%1017 гПамалооблачно
18:00+10ЮЗ, 3 м/с52%1017 гПамалооблачно
19:00+7Ю, 2 м/с61%1017 гПаоблачно
20:00+6Ю, 3 м/с66%1017 гПаоблачно
21:00+6Ю, 4 м/с63%1016 гПаоблачно
22:00+6Ю, 4 м/с62%1016 гПаоблачно
23:00+6Ю, 3 м/с62%1015 гПаоблачно
23 апреля
00:00+6ЮЗ, 4 м/с62%1015 гПаоблачно
01:00+6ЮЗ, 4 м/с66%1014 гПаоблачно
02:00+4ЮЗ, 3 м/с73%1014 гПаоблачно
03:00+3ЮЗ, 4 м/с78%1013 гПаоблачно
04:00+2ЮЗ, 3 м/с86%1013 гПаоблачно
05:00+3ЮЗ, 4 м/с82%1012 гПаоблачно
06:00+4ЮЗ, 4 м/с72%1012 гПаоблачно
07:00+7ЮЗ, 4 м/с62%1011 гПаоблачно
08:00+9ЮЗ, 5 м/с53%1010 гПаоблачно
09:00+9ЮЗ, 6 м/с52%1010 гПаоблачно
10:00+10З, 7 м/с49%1010 гПаоблачно
11:00+10ЮЗ, 6 м/с46%1010 гПаоблачносл. дождь
12:00+11ЮЗ, 6 м/с48%1009 гПаоблачнодождь
13:00+9З, 7 м/с58%1010 гПаоблачносл. дождь
14:00+8З, 6 м/с64%1010 гПаоблачносл. дождь
15:00+7З, 5 м/с71%1011 гПаоблачно